Flight Track Log - Related Links

Times and Time Zones

All times are in EDT time to prevent confusion due to time zone crossing. See the N234GF flight status page for this flight to view local times or setup timezone preferences in your user account.

Time Position Orientation Groundspeed Altitude Reporting Facility
EDT Latitude Longitude Course Direction KTS MPH feet Rate Location/Type
Sun 02:14:24 PM 45.4847 -84.8358 165° South 249 287 7,000  Level Minneapolis Center
Sun 02:15:26 PM 45.4097 -84.8022 163° South 265 305 10,500 3,435 Climbing Minneapolis Center
Sun 02:16:28 PM 45.3228 -84.7650 163° South 302 348 14,100 3,048 Climbing Minneapolis Center
Sun 02:17:30 PM 45.2339 -84.7225 161° South 314 361 16,800 1,984 Climbing Minneapolis Center
Sun 02:18:32 PM 45.1372 -84.6775 162° South 372 428 18,200 1,065 Climbing Minneapolis Center
Sun 02:19:00 PM 45.0639 -84.5843 165° South  Level FlightAware Approximate
Sun 02:19:34 PM 45.0228 -84.6256 162° South 402 463 19,000  Level Minneapolis Center
Sun 02:20:36 PM 44.9108 -84.5742 162° South 426 490 19,000  Level Minneapolis Center
Sun 02:21:38 PM 44.7931 -84.5308 165° South 409 471 19,000  Level Minneapolis Center
Sun 02:22:40 PM 44.6872 -84.4833 162° South 397 457 19,000  Level Minneapolis Center
Sun 02:23:42 PM 44.5786 -84.4403 164° South 401 461 19,000  Level Minneapolis Center
Sun 02:24:44 PM 44.4511 -84.3931 165° South 426 490 19,000  Level Minneapolis Center
Sun 02:25:46 PM 44.3392 -84.3481 164° South 426 490 19,000  Level Minneapolis Center
Sun 02:26:48 PM 44.2164 -84.3014 165° South 426 490 19,000  Level Minneapolis Center
Sun 02:27:51 PM 44.1083 -84.2600 165° South 414 476 19,000  Level Minneapolis Center
Sun 02:28:53 PM 43.9906 -84.2086 163° South 414 476 19,000  Level Minneapolis Center
Sun 02:29:55 PM 43.8922 -84.1636 162° South 401 461 19,000  Level Minneapolis Center
Sun 02:30:57 PM 43.7850 -84.1147 162° South 402 463 19,000  Level Minneapolis Center
Sun 02:31:59 PM 43.6753 -84.0728 165° South 406 467 19,000 -145 Level Minneapolis Center
Sun 02:33:01 PM 43.5647 -84.0283 164° South 413 475 18,700 -1,258 Descending Minneapolis Center
Sun 02:34:03 PM 43.4381 -83.9750 163° South 401 461 16,400 -2,177 Descending Minneapolis Center
Sun 02:35:05 PM 43.3317 -83.9306 163° South 400 460 14,200 -2,217 Descending Minneapolis Center
Sun 02:35:35 PM 43.2753 -83.9081 164° South 394 453 13,000 -2,133 Descending Cleveland Center
Sun 02:36:35 PM 43.1742 -83.8686 164° South 389 448 11,000 -1,650 Descending Cleveland Center
Sun 02:37:35 PM 43.0894 -83.8383 165° South 345 397 9,700 -1,350 Descending Cleveland Center
Sun 02:38:35 PM 43.0153 -83.8061 162° South 295 339 8,300 -1,500 Descending Cleveland Center
Sun 02:39:35 PM 42.9411 -83.7767 164° South 274 315 6,700 -1,412 Descending Cleveland Center
Sun 02:40:17 PM 42.8939 -83.7572 163° South 255 293 5,900 -1,485 Descending Cleveland Center
Sun 02:41:12 PM 42.8339 -83.7344 164° South 244 281 4,300 -885 Descending Cleveland Center
Sun 02:42:19 PM 42.7575 -83.7081 166° South 256 295 4,100 -141 Descending Cleveland Center
Sun 02:43:20 PM 42.7225 -83.6158 117° Southeast 273 314 4,000 -344 Descending Cleveland Center
Sun 02:44:21 PM 42.7042 -83.5189 104° East 272 313 3,400 -645 Descending Cleveland Center
Sun 02:45:21 PM 42.7044 -83.4283 90° East 226 260 2,700 -545 Descending Cleveland Center
Sun 02:46:22 PM 42.7019 -83.3606 93° East 158 182 2,300 -517 Descending Cleveland Center
Sun 02:47:17 PM 42.6661 -83.3675 188° South 140 161 1,700 -655 Descending Cleveland Center
Sun 02:49:00 PM 42.6500 -83.4167 144° Southeast  Level FlightAware Approximate

Login

Don't have an account? Register now (free) for customized features, flight alerts, and more!